createdAt,value
2023-05-15T00:00:10.912Z,2.38
2023-05-15T00:02:38.956Z,3.17
2023-05-15T00:05:08.050Z,3.35
2023-05-15T00:07:36.247Z,3.13
2023-05-15T00:10:03.476Z,3.35
2023-05-15T00:12:30.515Z,2.88
2023-05-15T00:14:57.199Z,3.50
2023-05-15T00:17:23.796Z,3.05
2023-05-15T00:19:50.456Z,3.22
2023-05-15T00:22:17.050Z,2.75
2023-05-15T00:24:43.890Z,3.65
2023-05-15T00:27:10.570Z,3.75
2023-05-15T00:29:37.178Z,3.45
2023-05-15T00:32:04.054Z,3.83
2023-05-15T00:34:30.786Z,3.63
2023-05-15T00:36:57.438Z,4.05
2023-05-15T00:39:24.208Z,3.80
2023-05-15T00:41:54.341Z,3.90
2023-05-15T00:44:21.958Z,4.22
2023-05-15T00:46:50.197Z,3.53
2023-05-15T00:49:19.611Z,3.47
2023-05-15T00:51:46.382Z,3.83
2023-05-15T00:54:12.997Z,3.70
2023-05-15T00:56:41.773Z,3.72
2023-05-15T00:59:08.720Z,3.25
2023-05-15T01:01:35.697Z,4.13
2023-05-15T01:04:02.912Z,3.90
2023-05-15T01:06:32.805Z,4.18
2023-05-15T01:09:04.656Z,3.35
2023-05-15T01:11:36.455Z,4.70
2023-05-15T01:14:07.848Z,3.80
2023-05-15T01:16:36.183Z,3.90
2023-05-15T01:19:04.777Z,3.08
2023-05-15T01:21:40.904Z,2.88
2023-05-15T01:24:41.733Z,3.58
2023-05-15T01:27:19.312Z,3.03
2023-05-15T01:29:56.102Z,2.75
2023-05-15T01:32:43.196Z,3.30
2023-05-15T01:35:27.520Z,4.05
2023-05-15T01:38:03.914Z,3.42
2023-05-15T01:40:30.585Z,4.63
2023-05-15T01:43:05.370Z,4.28
2023-05-15T01:45:33.661Z,4.10
2023-05-15T01:48:02.227Z,4.18
2023-05-15T01:50:32.798Z,4.03
2023-05-15T01:53:02.740Z,4.55
2023-05-15T01:55:30.856Z,4.43
2023-05-15T01:58:01.508Z,3.92
2023-05-15T02:00:29.760Z,4.03
2023-05-15T02:02:57.869Z,3.60
2023-05-15T02:05:25.993Z,4.50
2023-05-15T02:07:53.707Z,4.57
2023-05-15T02:10:21.411Z,4.68
2023-05-15T02:12:50.246Z,4.35
2023-05-15T02:15:17.475Z,5.03
2023-05-15T02:17:44.190Z,3.83
2023-05-15T02:20:11.718Z,3.92
2023-05-15T02:22:38.521Z,4.57
2023-05-15T02:25:06.159Z,4.85
2023-05-15T02:27:45.691Z,4.70
2023-05-15T02:30:29.717Z,4.85
2023-05-15T02:33:21.556Z,5.45
2023-05-15T02:35:58.936Z,3.75
2023-05-15T02:38:33.323Z,4.30
2023-05-15T02:41:01.109Z,4.35
2023-05-15T02:43:29.312Z,4.80
2023-05-15T02:45:57.238Z,5.25
2023-05-15T02:48:25.338Z,4.88
2023-05-15T02:50:53.344Z,4.90
2023-05-15T02:53:19.888Z,5.05
2023-05-15T02:55:46.511Z,4.50
2023-05-15T02:58:13.474Z,4.32
2023-05-15T03:00:40.288Z,5.45
2023-05-15T03:03:06.991Z,5.00
2023-05-15T03:05:33.678Z,5.07
2023-05-15T03:08:01.196Z,4.63
2023-05-15T03:10:29.009Z,4.90
2023-05-15T03:12:59.388Z,4.90
2023-05-15T03:15:26.401Z,5.63
2023-05-15T03:17:53.251Z,5.20
2023-05-15T03:20:20.060Z,5.40
2023-05-15T03:22:46.769Z,5.85
2023-05-15T03:25:13.390Z,5.90
2023-05-15T03:27:40.027Z,5.47
2023-05-15T03:30:07.351Z,5.55
2023-05-15T03:32:34.006Z,5.80
2023-05-15T03:35:01.118Z,5.95
2023-05-15T03:37:27.884Z,5.47
2023-05-15T03:39:56.228Z,5.50
2023-05-15T03:42:25.250Z,5.90
2023-05-15T03:44:52.413Z,6.07
2023-05-15T03:47:19.414Z,4.60
2023-05-15T03:49:46.980Z,5.80
2023-05-15T03:52:13.971Z,5.45
2023-05-15T03:54:42.214Z,6.45
2023-05-15T03:57:09.086Z,5.55
2023-05-15T03:59:35.751Z,5.93
2023-05-15T04:02:05.481Z,6.45
2023-05-15T04:04:33.050Z,5.75
2023-05-15T04:07:00.315Z,5.68
2023-05-15T04:09:27.027Z,4.72
2023-05-15T04:11:53.800Z,5.85
2023-05-15T04:14:21.007Z,5.57
2023-05-15T04:16:47.820Z,5.47
2023-05-15T04:19:15.081Z,5.68
2023-05-15T04:21:41.809Z,4.78
2023-05-15T04:24:08.905Z,4.95
2023-05-15T04:26:36.607Z,6.13
2023-05-15T04:29:04.773Z,5.85
2023-05-15T04:31:32.203Z,6.00
2023-05-15T04:33:58.846Z,6.68
2023-05-15T04:36:25.705Z,6.93
2023-05-15T04:38:52.348Z,6.50
2023-05-15T04:41:18.988Z,7.85
2023-05-15T04:43:46.006Z,6.47
2023-05-15T04:46:12.994Z,7.40
2023-05-15T04:48:39.830Z,5.88
2023-05-15T04:51:07.571Z,6.55
2023-05-15T04:53:35.228Z,6.18
2023-05-15T04:56:01.853Z,6.82
2023-05-15T04:58:28.631Z,7.15
2023-05-15T05:00:55.704Z,7.18
2023-05-15T05:03:22.796Z,7.20
2023-05-15T05:05:49.849Z,7.53
2023-05-15T05:08:17.133Z,6.60
2023-05-15T05:10:43.841Z,6.63
2023-05-15T05:13:10.813Z,7.63
2023-05-15T05:15:37.785Z,7.50
2023-05-15T05:18:04.858Z,8.38
2023-05-15T05:20:31.707Z,8.48
2023-05-15T05:22:58.328Z,7.88
2023-05-15T05:25:25.531Z,7.40
2023-05-15T05:27:52.475Z,9.13
2023-05-15T05:30:19.819Z,7.28
2023-05-15T05:32:46.900Z,7.60
2023-05-15T05:35:14.185Z,8.10
2023-05-15T05:37:41.647Z,6.43
2023-05-15T05:40:09.082Z,8.20
2023-05-15T05:42:35.860Z,7.18
2023-05-15T05:45:02.735Z,7.63
2023-05-15T05:47:29.724Z,7.45
2023-05-15T05:49:56.908Z,6.72
2023-05-15T05:52:23.783Z,8.10
2023-05-15T05:54:50.720Z,8.43
2023-05-15T05:57:17.571Z,8.68
2023-05-15T05:59:45.902Z,7.97
2023-05-15T06:02:13.690Z,7.65
2023-05-15T06:04:40.528Z,6.60
2023-05-15T06:07:07.557Z,5.65
2023-05-15T06:09:34.533Z,6.22
2023-05-15T06:12:04.643Z,5.38
2023-05-15T06:14:31.496Z,5.88
2023-05-15T06:16:58.702Z,5.35
2023-05-15T06:19:25.910Z,5.80
2023-05-15T06:21:53.422Z,5.53
2023-05-15T06:24:20.190Z,4.90
2023-05-15T06:26:46.931Z,4.50
2023-05-15T06:29:13.572Z,5.18
2023-05-15T06:31:40.220Z,4.97
2023-05-15T06:34:07.215Z,5.60
2023-05-15T06:36:43.510Z,5.22
2023-05-15T06:39:13.041Z,5.20
2023-05-15T06:41:40.350Z,5.30
2023-05-15T06:44:07.133Z,5.63
2023-05-15T06:46:33.979Z,5.03
2023-05-15T06:49:00.927Z,4.72
2023-05-15T06:51:27.939Z,5.72
2023-05-15T06:53:55.047Z,5.57
2023-05-15T06:56:22.135Z,5.38
2023-05-15T06:58:48.940Z,5.38
2023-05-15T07:01:15.799Z,5.38
2023-05-15T07:03:43.172Z,5.15
2023-05-15T07:06:09.897Z,5.22
2023-05-15T07:08:36.769Z,5.43
2023-05-15T07:11:03.963Z,5.07
2023-05-15T07:13:30.815Z,6.03
2023-05-15T07:16:00.142Z,5.22
2023-05-15T07:18:27.033Z,4.63
2023-05-15T07:20:54.205Z,4.45
2023-05-15T07:23:21.043Z,4.28
2023-05-15T07:25:48.474Z,3.92
2023-05-15T07:28:15.354Z,5.47
2023-05-15T07:30:42.634Z,4.72
2023-05-15T07:33:09.807Z,5.85
2023-05-15T07:35:36.764Z,4.82
2023-05-15T07:38:03.680Z,5.20
2023-05-15T07:40:31.011Z,3.92
2023-05-15T07:42:58.648Z,4.88
2023-05-15T07:45:25.785Z,5.68
2023-05-15T07:47:52.868Z,4.00
2023-05-15T07:50:19.671Z,3.88
2023-05-15T07:52:46.753Z,4.60
2023-05-15T07:55:13.748Z,4.18
2023-05-15T07:57:45.793Z,4.57
2023-05-15T08:00:13.177Z,5.10
2023-05-15T08:02:40.802Z,3.85
2023-05-15T08:05:08.070Z,5.93
2023-05-15T08:07:35.141Z,5.32
2023-05-15T08:10:02.141Z,4.60
2023-05-15T08:12:29.153Z,5.45
2023-05-15T08:14:56.543Z,4.97
2023-05-15T08:17:24.881Z,4.95
2023-05-15T08:19:52.382Z,5.45
2023-05-15T08:22:19.434Z,5.20
2023-05-15T08:24:46.340Z,6.47
2023-05-15T08:27:13.370Z,6.30
2023-05-15T08:29:40.382Z,5.82
2023-05-15T08:32:08.819Z,5.50
2023-05-15T08:34:35.829Z,6.63
2023-05-15T08:37:02.629Z,5.82
2023-05-15T08:39:29.307Z,6.70
2023-05-15T08:42:08.701Z,6.15
2023-05-15T08:44:36.323Z,6.85
2023-05-15T08:47:04.081Z,5.20
2023-05-15T08:49:46.411Z,6.15
2023-05-15T08:54:41.119Z,6.63
2023-05-15T08:57:09.488Z,5.85
2023-05-15T08:59:37.704Z,6.70
2023-05-15T09:02:04.938Z,5.13
2023-05-15T09:04:32.176Z,5.78
2023-05-15T09:07:03.823Z,6.28
2023-05-15T09:09:33.144Z,5.53
2023-05-15T09:12:02.457Z,5.65
2023-05-15T09:14:30.442Z,5.78
2023-05-15T09:16:57.387Z,6.47
2023-05-15T09:19:24.384Z,5.38
2023-05-15T09:21:51.130Z,5.50
2023-05-15T09:24:23.785Z,5.15
2023-05-15T09:27:09.443Z,4.43
2023-05-15T09:29:38.160Z,4.63
2023-05-15T09:32:08.031Z,4.25
2023-05-15T09:34:38.053Z,4.80
2023-05-15T09:37:07.656Z,5.00
2023-05-15T09:39:41.925Z,4.95
2023-05-15T09:42:10.589Z,4.75
2023-05-15T09:44:42.512Z,4.53
2023-05-15T09:47:13.904Z,4.65
2023-05-15T09:49:44.280Z,4.22
2023-05-15T09:52:11.146Z,5.32
2023-05-15T09:54:38.410Z,6.35
2023-05-15T09:57:09.931Z,5.55
2023-05-15T09:59:42.998Z,5.88
2023-05-15T10:02:13.327Z,5.43
2023-05-15T10:04:40.626Z,5.35
2023-05-15T10:07:09.684Z,5.30
2023-05-15T10:09:36.709Z,4.97
2023-05-15T10:12:05.550Z,4.57
2023-05-15T10:14:32.617Z,4.82
2023-05-15T10:17:00.491Z,4.78
2023-05-15T10:19:29.694Z,4.70
2023-05-15T10:21:59.683Z,5.18
2023-05-15T10:24:30.139Z,3.85
2023-05-15T10:26:57.620Z,4.32
2023-05-15T10:29:27.171Z,4.35
2023-05-15T10:31:55.013Z,4.85
2023-05-15T10:34:22.375Z,4.18
2023-05-15T10:36:50.124Z,4.45
2023-05-15T10:39:17.844Z,4.63
2023-05-15T10:41:46.030Z,5.13
2023-05-15T10:44:14.874Z,5.45
2023-05-15T10:46:41.787Z,5.13
2023-05-15T10:49:08.701Z,5.25
2023-05-15T10:51:39.687Z,4.05
2023-05-15T10:54:06.706Z,4.57
2023-05-15T10:56:34.867Z,4.43
2023-05-15T10:59:10.634Z,5.03
2023-05-15T11:01:39.590Z,4.60
2023-05-15T11:04:17.692Z,4.53
2023-05-15T11:06:49.495Z,4.85
2023-05-15T11:09:22.744Z,5.93
2023-05-15T11:11:52.706Z,4.60
2023-05-15T11:14:20.191Z,5.32
2023-05-15T11:16:55.931Z,4.20
2023-05-15T11:19:22.668Z,4.78
2023-05-15T11:22:16.866Z,5.32
2023-05-15T11:24:59.171Z,6.78
2023-05-15T11:30:11.033Z,5.70
2023-05-15T11:32:59.080Z,6.32
2023-05-15T11:35:30.255Z,7.95
2023-05-15T11:37:58.613Z,5.05
2023-05-15T11:40:32.949Z,5.32
2023-05-15T11:43:20.681Z,4.95
2023-05-15T11:45:56.278Z,5.50
2023-05-15T11:48:25.452Z,5.63
2023-05-15T11:50:55.473Z,6.03
2023-05-15T11:53:24.177Z,5.40
2023-05-15T11:55:53.066Z,4.97
2023-05-15T11:58:21.576Z,4.90
2023-05-15T12:00:50.349Z,5.32
2023-05-15T12:03:32.296Z,4.40
2023-05-15T12:06:01.221Z,4.97
2023-05-15T12:08:36.194Z,4.53
2023-05-15T12:11:06.000Z,5.22
2023-05-15T12:13:33.969Z,5.88
2023-05-15T12:16:04.692Z,5.20
2023-05-15T12:18:32.839Z,4.70
2023-05-15T12:21:02.161Z,11.23
2023-05-15T12:23:29.116Z,5.45
2023-05-15T12:26:01.357Z,5.43
2023-05-15T12:28:29.665Z,6.07
2023-05-15T12:30:57.093Z,5.13
2023-05-15T12:33:25.164Z,4.65
2023-05-15T12:35:58.270Z,5.20
2023-05-15T12:38:27.343Z,5.20
2023-05-15T12:40:54.489Z,5.60
2023-05-15T12:43:25.226Z,5.32
2023-05-15T12:45:55.329Z,5.55
2023-05-15T12:48:34.234Z,5.55
2023-05-15T12:51:08.329Z,4.88
2023-05-15T12:53:36.368Z,5.20
2023-05-15T12:56:04.954Z,5.05
2023-05-15T12:58:32.490Z,4.45
2023-05-15T13:01:08.539Z,4.85
2023-05-15T13:03:36.205Z,3.88
2023-05-15T13:06:03.985Z,4.30
2023-05-15T13:08:31.774Z,4.78
2023-05-15T13:11:02.157Z,8.45
2023-05-15T13:13:47.117Z,5.32
2023-05-15T13:16:21.768Z,4.78
2023-05-15T13:18:50.345Z,3.83
2023-05-15T13:21:18.130Z,4.13
2023-05-15T13:23:45.370Z,4.15
2023-05-15T13:26:12.242Z,3.88
2023-05-15T13:28:39.513Z,3.58
2023-05-15T13:31:07.462Z,3.47
2023-05-15T13:33:35.700Z,4.00
2023-05-15T13:36:02.842Z,4.47
2023-05-15T13:38:29.811Z,4.32
2023-05-15T13:40:56.711Z,3.75
2023-05-15T13:43:26.904Z,4.78
2023-05-15T13:45:54.433Z,3.90
2023-05-15T13:48:21.395Z,4.10
2023-05-15T13:50:48.255Z,4.68
2023-05-15T13:53:17.164Z,4.93
2023-05-15T13:55:45.575Z,3.88
2023-05-15T13:58:13.371Z,4.55
2023-05-15T14:00:45.393Z,5.05
2023-05-15T14:05:42.488Z,5.60
2023-05-15T14:08:09.460Z,5.20
2023-05-15T14:10:37.619Z,4.97
2023-05-15T14:13:08.151Z,5.25
2023-05-15T14:15:35.651Z,5.50
2023-05-15T14:18:04.049Z,3.60
2023-05-15T14:20:31.299Z,5.68
2023-05-15T14:22:58.022Z,4.65
2023-05-15T14:25:25.868Z,3.85
2023-05-15T14:27:52.700Z,4.65
2023-05-15T14:30:19.760Z,5.20
2023-05-15T14:32:46.923Z,4.25
2023-05-15T14:35:13.724Z,4.22
2023-05-15T14:37:40.833Z,4.55
2023-05-15T14:40:09.099Z,3.58
2023-05-15T14:42:36.014Z,2.92
2023-05-15T14:45:03.134Z,3.78
2023-05-15T14:47:30.628Z,3.88
2023-05-15T14:49:57.483Z,3.97
2023-05-15T14:52:24.331Z,3.38
2023-05-15T14:55:08.075Z,2.60
2023-05-15T14:57:36.821Z,2.13
2023-05-15T15:00:06.098Z,2.83
2023-05-15T15:02:33.095Z,2.67
2023-05-15T15:05:00.387Z,2.67
2023-05-15T15:07:29.474Z,2.20
2023-05-15T15:09:56.237Z,2.67
2023-05-15T15:12:24.224Z,2.10
2023-05-15T15:14:51.081Z,2.45
2023-05-15T15:17:18.683Z,2.08
2023-05-15T15:19:46.426Z,2.42
2023-05-15T15:22:13.302Z,2.00
2023-05-15T15:24:40.563Z,2.40
2023-05-15T15:27:07.807Z,2.55
2023-05-15T15:29:46.888Z,2.13
2023-05-15T15:32:14.244Z,2.38
2023-05-15T15:34:41.517Z,2.08
2023-05-15T15:37:09.088Z,2.70
2023-05-15T15:39:51.336Z,2.28
2023-05-15T15:44:49.752Z,2.80
2023-05-15T15:47:23.030Z,3.42
2023-05-15T15:49:53.519Z,7.60
2023-05-15T15:52:22.172Z,3.55
2023-05-15T15:54:49.266Z,3.47
2023-05-15T15:57:22.958Z,2.30
2023-05-15T16:02:52.839Z,2.63
2023-05-15T16:05:20.099Z,3.05
2023-05-15T16:07:52.036Z,2.88
2023-05-15T16:10:21.874Z,3.20
2023-05-15T16:12:48.933Z,3.13
2023-05-15T16:15:23.366Z,3.03
2023-05-15T16:17:53.489Z,3.55
2023-05-15T16:20:21.182Z,3.65
2023-05-15T16:27:07.537Z,3.55
2023-05-15T16:29:34.438Z,3.92
2023-05-15T16:32:01.597Z,3.25
2023-05-15T16:34:28.426Z,3.63
2023-05-15T16:36:55.601Z,4.05
2023-05-15T16:39:22.326Z,3.95
2023-05-15T16:41:52.143Z,4.50
2023-05-15T16:44:19.439Z,4.18
2023-05-15T16:46:46.436Z,4.57
2023-05-15T16:49:13.507Z,4.47
2023-05-15T16:51:41.201Z,4.22
2023-05-15T16:54:08.006Z,4.47
2023-05-15T16:56:35.184Z,4.10
2023-05-15T16:59:02.154Z,5.10
2023-05-15T17:01:31.306Z,4.57
2023-05-15T17:03:59.926Z,5.45
2023-05-15T17:06:30.116Z,5.10
2023-05-15T17:08:57.350Z,4.72
2023-05-15T17:11:24.369Z,6.82
2023-05-15T17:13:52.766Z,4.72
2023-05-15T17:16:19.877Z,5.40
2023-05-15T17:18:47.059Z,8.90
2023-05-15T17:21:18.845Z,4.80
2023-05-15T17:23:47.654Z,5.40
2023-05-15T17:26:21.530Z,5.13
2023-05-15T17:28:50.993Z,5.90
2023-05-15T17:31:18.397Z,5.55
2023-05-15T17:33:47.524Z,5.10
2023-05-15T17:36:14.953Z,5.05
2023-05-15T17:38:41.935Z,5.97
2023-05-15T17:41:08.759Z,6.18
2023-05-15T17:43:36.201Z,6.47
2023-05-15T17:46:03.840Z,15.98
2023-05-15T17:48:31.346Z,8.65
2023-05-15T17:50:58.546Z,7.15
2023-05-15T17:53:28.399Z,5.75
2023-05-15T17:55:56.294Z,5.80
2023-05-15T17:58:23.197Z,6.60
2023-05-15T18:00:52.152Z,6.93
2023-05-15T18:03:18.897Z,6.53
2023-05-15T18:05:47.106Z,7.07
2023-05-15T18:08:14.478Z,6.28
2023-05-15T18:10:41.119Z,6.18
2023-05-15T18:13:09.959Z,6.93
2023-05-15T18:15:36.596Z,6.25
2023-05-15T18:18:04.122Z,6.63
2023-05-15T18:20:30.855Z,6.70
2023-05-15T18:22:57.696Z,7.05
2023-05-15T18:25:24.924Z,6.93
2023-05-15T18:27:55.931Z,6.47
2023-05-15T18:30:29.931Z,6.68
2023-05-15T18:33:04.793Z,6.28
2023-05-15T18:35:45.295Z,6.55
2023-05-15T18:38:19.931Z,6.43
2023-05-15T18:40:57.463Z,6.78
2023-05-15T18:43:37.352Z,6.75
2023-05-15T18:46:08.084Z,6.85
2023-05-15T18:48:46.343Z,7.57
2023-05-15T18:51:13.249Z,6.38
2023-05-15T18:53:40.180Z,6.95
2023-05-15T18:56:07.003Z,6.95
2023-05-15T18:58:34.474Z,9.20
2023-05-15T19:01:01.220Z,6.45
2023-05-15T19:03:28.095Z,7.72
2023-05-15T19:05:54.834Z,7.38
2023-05-15T19:08:22.146Z,6.72
2023-05-15T19:10:49.312Z,6.93
2023-05-15T19:13:16.496Z,7.88
2023-05-15T19:15:53.524Z,6.80
2023-05-15T19:18:20.605Z,7.75
2023-05-15T19:20:50.588Z,7.25
2023-05-15T19:23:17.434Z,6.65
2023-05-15T19:25:45.202Z,9.65
2023-05-15T19:28:13.050Z,9.00
2023-05-15T19:30:39.959Z,8.90
2023-05-15T19:33:06.803Z,8.20
2023-05-15T19:35:37.651Z,7.78
2023-05-15T19:38:04.839Z,8.07
2023-05-15T19:40:31.923Z,8.15
2023-05-15T19:42:58.997Z,7.00
2023-05-15T19:45:25.748Z,7.43
2023-05-15T19:47:52.756Z,7.78
2023-05-15T19:50:19.911Z,8.02
2023-05-15T19:52:46.967Z,8.18
2023-05-15T19:55:13.960Z,7.63
2023-05-15T19:57:40.742Z,8.10
2023-05-15T20:00:08.506Z,9.43
2023-05-15T20:02:35.807Z,9.00
2023-05-15T20:05:02.548Z,8.30
2023-05-15T20:07:29.493Z,7.55
2023-05-15T20:09:56.261Z,7.00
2023-05-15T20:12:23.226Z,7.55
2023-05-15T20:14:50.789Z,7.78
2023-05-15T20:17:18.480Z,7.47
2023-05-15T20:19:46.809Z,9.13
2023-05-15T20:22:13.847Z,8.63
2023-05-15T20:24:41.255Z,8.45
2023-05-15T20:27:08.476Z,8.43
2023-05-15T20:29:36.197Z,7.75
2023-05-15T20:32:04.228Z,6.88
2023-05-15T20:34:32.837Z,8.93
2023-05-15T20:36:59.497Z,8.30
2023-05-15T20:39:26.814Z,7.88
2023-05-15T20:41:53.642Z,7.20
2023-05-15T20:44:20.764Z,9.48
2023-05-15T20:46:47.400Z,8.20
2023-05-15T20:49:14.400Z,9.25
2023-05-15T20:51:43.727Z,7.72
2023-05-15T20:54:10.369Z,7.97
2023-05-15T20:56:37.316Z,8.75
2023-05-15T20:59:04.065Z,7.60
2023-05-15T21:01:30.922Z,8.27
2023-05-15T21:03:57.695Z,7.35
2023-05-15T21:06:24.815Z,9.13
2023-05-15T21:08:51.706Z,8.10
2023-05-15T21:11:18.803Z,8.10
2023-05-15T21:13:45.402Z,7.47
2023-05-15T21:16:12.164Z,8.27
2023-05-15T21:18:39.309Z,6.75
2023-05-15T21:21:09.321Z,7.60
2023-05-15T21:23:36.726Z,7.68
2023-05-15T21:26:04.050Z,8.63
2023-05-15T21:28:31.038Z,8.05
2023-05-15T21:30:57.847Z,7.13
2023-05-15T21:33:24.509Z,9.38
2023-05-15T21:35:51.759Z,7.40
2023-05-15T21:38:18.729Z,8.18
2023-05-15T21:40:45.487Z,8.23
2023-05-15T21:43:12.298Z,7.57
2023-05-15T21:45:39.724Z,8.05
2023-05-15T21:48:06.874Z,7.57
2023-05-15T21:50:33.765Z,8.35
2023-05-15T21:53:00.800Z,7.78
2023-05-15T21:55:27.595Z,7.75
2023-05-15T21:57:54.339Z,7.72
2023-05-15T22:00:21.001Z,7.40
2023-05-15T22:02:47.984Z,8.18
2023-05-15T22:05:15.347Z,7.97
2023-05-15T22:07:42.363Z,7.80
2023-05-15T22:10:13.813Z,8.52
2023-05-15T22:12:40.577Z,6.82
2023-05-15T22:15:07.894Z,8.25
2023-05-15T22:17:37.041Z,6.55
2023-05-15T22:20:08.142Z,7.15
2023-05-15T22:22:35.892Z,7.30
2023-05-15T22:25:02.726Z,6.72
2023-05-15T22:27:29.336Z,8.05
2023-05-15T22:29:56.138Z,7.82
2023-05-15T22:32:23.017Z,8.23
2023-05-15T22:34:49.990Z,8.15
2023-05-15T22:37:16.662Z,7.72
2023-05-15T22:39:43.943Z,7.53
2023-05-15T22:42:10.685Z,7.53
2023-05-15T22:44:37.459Z,7.30
2023-05-15T22:47:04.291Z,7.32
2023-05-15T22:49:31.103Z,7.00
2023-05-15T22:51:58.262Z,6.00
2023-05-15T22:54:25.171Z,7.20
2023-05-15T22:56:52.603Z,7.15
2023-05-15T22:59:20.217Z,6.63
2023-05-15T23:01:47.675Z,6.03
2023-05-15T23:04:15.113Z,6.03
2023-05-15T23:06:41.938Z,6.88
2023-05-15T23:09:09.108Z,6.22
2023-05-15T23:11:36.085Z,6.13
2023-05-15T23:14:03.731Z,5.78
2023-05-15T23:16:30.990Z,5.38
2023-05-15T23:18:57.980Z,5.75
2023-05-15T23:21:24.866Z,6.13
2023-05-15T23:23:51.750Z,6.85
2023-05-15T23:26:18.455Z,6.28
2023-05-15T23:28:45.344Z,6.35
2023-05-15T23:31:15.204Z,6.22
2023-05-15T23:33:41.967Z,6.80
2023-05-15T23:36:08.949Z,6.43
2023-05-15T23:38:35.857Z,6.45
2023-05-15T23:41:02.616Z,6.15
2023-05-15T23:43:29.814Z,6.65
2023-05-15T23:45:56.457Z,6.60
2023-05-15T23:48:23.120Z,6.80
2023-05-15T23:50:50.225Z,5.72
2023-05-15T23:53:16.982Z,6.82
2023-05-15T23:55:43.596Z,5.70
2023-05-15T23:58:10.227Z,6.63
